sensor_id;sensor_type;location;lat;lon;timestamp;P1;durP1;ratioP1;P2;durP2;ratioP2
76656;SDS011;65576;47.714;9.414;2023-02-20T00:01:30;1.27;;;1.13;;
76656;SDS011;65576;47.714;9.414;2023-02-20T00:03:56;4.75;;;1.15;;
76656;SDS011;65576;47.714;9.414;2023-02-20T00:06:22;1.05;;;0.93;;
76656;SDS011;65576;47.714;9.414;2023-02-20T00:08:47;0.82;;;0.80;;
76656;SDS011;65576;47.714;9.414;2023-02-20T00:11:12;1.20;;;0.77;;
76656;SDS011;65576;47.714;9.414;2023-02-20T00:13:38;1.10;;;1.05;;
76656;SDS011;65576;47.714;9.414;2023-02-20T00:18:34;3.67;;;0.90;;
76656;SDS011;65576;47.714;9.414;2023-02-20T00:20:59;1.25;;;0.68;;
76656;SDS011;65576;47.714;9.414;2023-02-20T00:23:25;1.92;;;1.08;;
76656;SDS011;65576;47.714;9.414;2023-02-20T00:25:50;1.30;;;1.20;;
76656;SDS011;65576;47.714;9.414;2023-02-20T00:28:15;5.93;;;1.42;;
76656;SDS011;65576;47.714;9.414;2023-02-20T00:30:41;1.90;;;1.05;;
76656;SDS011;65576;47.714;9.414;2023-02-20T00:33:06;2.00;;;1.02;;
76656;SDS011;65576;47.714;9.414;2023-02-20T00:35:31;3.53;;;1.30;;
76656;SDS011;65576;47.714;9.414;2023-02-20T00:37:56;2.78;;;1.50;;
76656;SDS011;65576;47.714;9.414;2023-02-20T00:40:23;1.40;;;1.10;;
76656;SDS011;65576;47.714;9.414;2023-02-20T00:42:49;0.95;;;0.85;;
76656;SDS011;65576;47.714;9.414;2023-02-20T00:45:15;1.20;;;0.90;;
76656;SDS011;65576;47.714;9.414;2023-02-20T00:47:41;1.30;;;1.20;;
76656;SDS011;65576;47.714;9.414;2023-02-20T00:50:06;1.33;;;0.70;;
76656;SDS011;65576;47.714;9.414;2023-02-20T00:52:32;6.18;;;0.88;;
76656;SDS011;65576;47.714;9.414;2023-02-20T00:54:58;0.95;;;0.90;;
76656;SDS011;65576;47.714;9.414;2023-02-20T00:57:23;0.85;;;0.65;;
76656;SDS011;65576;47.714;9.414;2023-02-20T00:59:48;0.70;;;0.70;;
76656;SDS011;65576;47.714;9.414;2023-02-20T01:02:14;1.50;;;1.00;;
76656;SDS011;65576;47.714;9.414;2023-02-20T01:04:39;1.75;;;1.38;;
76656;SDS011;65576;47.714;9.414;2023-02-20T01:07:05;0.88;;;0.88;;
76656;SDS011;65576;47.714;9.414;2023-02-20T01:09:30;0.77;;;0.65;;
76656;SDS011;65576;47.714;9.414;2023-02-20T01:11:55;0.40;;;0.40;;
76656;SDS011;65576;47.714;9.414;2023-02-20T01:14:21;1.15;;;0.98;;
76656;SDS011;65576;47.714;9.414;2023-02-20T01:16:47;1.20;;;1.05;;
76656;SDS011;65576;47.714;9.414;2023-02-20T01:19:15;1.42;;;0.90;;
76656;SDS011;65576;47.714;9.414;2023-02-20T01:21:41;1.08;;;0.95;;
76656;SDS011;65576;47.714;9.414;2023-02-20T01:24:06;2.20;;;1.10;;
76656;SDS011;65576;47.714;9.414;2023-02-20T01:26:32;1.83;;;1.15;;
76656;SDS011;65576;47.714;9.414;2023-02-20T01:28:57;1.50;;;1.20;;
76656;SDS011;65576;47.714;9.414;2023-02-20T01:31:22;1.20;;;1.10;;
76656;SDS011;65576;47.714;9.414;2023-02-20T01:33:48;1.08;;;0.98;;
76656;SDS011;65576;47.714;9.414;2023-02-20T01:36:13;0.55;;;0.55;;
76656;SDS011;65576;47.714;9.414;2023-02-20T01:38:38;2.60;;;1.10;;
76656;SDS011;65576;47.714;9.414;2023-02-20T01:41:04;1.33;;;1.23;;
76656;SDS011;65576;47.714;9.414;2023-02-20T01:43:30;1.52;;;1.20;;
76656;SDS011;65576;47.714;9.414;2023-02-20T01:46:22;1.67;;;1.23;;
76656;SDS011;65576;47.714;9.414;2023-02-20T01:49:09;2.50;;;1.60;;
76656;SDS011;65576;47.714;9.414;2023-02-20T01:51:37;2.10;;;1.05;;
76656;SDS011;65576;47.714;9.414;2023-02-20T01:54:07;1.90;;;1.40;;
76656;SDS011;65576;47.714;9.414;2023-02-20T01:56:33;1.80;;;0.93;;
76656;SDS011;65576;47.714;9.414;2023-02-20T01:58:59;2.33;;;1.67;;
76656;SDS011;65576;47.714;9.414;2023-02-20T02:01:25;1.20;;;0.93;;
76656;SDS011;65576;47.714;9.414;2023-02-20T02:03:51;1.25;;;1.00;;
76656;SDS011;65576;47.714;9.414;2023-02-20T02:06:28;0.70;;;0.70;;
76656;SDS011;65576;47.714;9.414;2023-02-20T02:08:55;0.73;;;0.73;;
76656;SDS011;65576;47.714;9.414;2023-02-20T02:11:23;1.45;;;1.35;;
76656;SDS011;65576;47.714;9.414;2023-02-20T02:13:49;1.17;;;1.08;;
76656;SDS011;65576;47.714;9.414;2023-02-20T02:25:31;1.35;;;0.88;;
76656;SDS011;65576;47.714;9.414;2023-02-20T02:28:20;1.67;;;0.85;;
76656;SDS011;65576;47.714;9.414;2023-02-20T02:41:17;0.90;;;0.90;;
76656;SDS011;65576;47.714;9.414;2023-02-20T02:43:58;0.80;;;0.80;;
76656;SDS011;65576;47.714;9.414;2023-02-20T02:46:36;2.00;;;1.02;;
76656;SDS011;65576;47.714;9.414;2023-02-20T02:49:06;2.42;;;1.10;;
76656;SDS011;65576;47.714;9.414;2023-02-20T02:51:35;2.08;;;1.40;;
76656;SDS011;65576;47.714;9.414;2023-02-20T02:54:14;3.47;;;1.05;;
76656;SDS011;65576;47.714;9.414;2023-02-20T02:56:42;1.35;;;1.23;;
76656;SDS011;65576;47.714;9.414;2023-02-20T02:59:12;1.83;;;1.05;;
76656;SDS011;65576;47.714;9.414;2023-02-20T03:01:41;0.88;;;0.82;;
76656;SDS011;65576;47.714;9.414;2023-02-20T03:04:10;0.82;;;0.82;;
76656;SDS011;65576;47.714;9.414;2023-02-20T03:06:38;2.95;;;0.75;;
76656;SDS011;65576;47.714;9.414;2023-02-20T03:12:11;1.27;;;0.90;;
76656;SDS011;65576;47.714;9.414;2023-02-20T03:14:40;0.70;;;0.70;;
76656;SDS011;65576;47.714;9.414;2023-02-20T03:20:02;0.82;;;0.80;;
76656;SDS011;65576;47.714;9.414;2023-02-20T03:23:13;1.00;;;0.82;;
76656;SDS011;65576;47.714;9.414;2023-02-20T03:25:27;2.78;;;1.30;;
76656;SDS011;65576;47.714;9.414;2023-02-20T03:28:05;0.50;;;0.50;;
76656;SDS011;65576;47.714;9.414;2023-02-20T03:30:41;0.40;;;0.40;;
76656;SDS011;65576;47.714;9.414;2023-02-20T03:33:12;0.90;;;0.90;;
76656;SDS011;65576;47.714;9.414;2023-02-20T03:35:58;0.28;;;0.28;;
76656;SDS011;65576;47.714;9.414;2023-02-20T03:38:43;1.35;;;0.75;;
76656;SDS011;65576;47.714;9.414;2023-02-20T03:41:30;0.88;;;0.55;;
76656;SDS011;65576;47.714;9.414;2023-02-20T03:44:15;0.80;;;0.80;;
76656;SDS011;65576;47.714;9.414;2023-02-20T03:46:42;1.80;;;1.15;;
76656;SDS011;65576;47.714;9.414;2023-02-20T03:49:13;1.20;;;0.95;;
76656;SDS011;65576;47.714;9.414;2023-02-20T03:51:41;0.93;;;0.85;;
76656;SDS011;65576;47.714;9.414;2023-02-20T03:54:07;3.33;;;1.13;;
76656;SDS011;65576;47.714;9.414;2023-02-20T03:56:37;0.85;;;0.60;;
76656;SDS011;65576;47.714;9.414;2023-02-20T03:59:13;0.82;;;0.70;;
76656;SDS011;65576;47.714;9.414;2023-02-20T04:01:42;1.33;;;1.23;;
76656;SDS011;65576;47.714;9.414;2023-02-20T04:04:11;0.98;;;0.60;;
76656;SDS011;65576;47.714;9.414;2023-02-20T04:06:39;1.25;;;0.90;;
76656;SDS011;65576;47.714;9.414;2023-02-20T04:09:06;0.80;;;0.80;;
76656;SDS011;65576;47.714;9.414;2023-02-20T04:11:53;1.63;;;1.23;;
76656;SDS011;65576;47.714;9.414;2023-02-20T04:14:22;1.80;;;0.55;;
76656;SDS011;65576;47.714;9.414;2023-02-20T04:16:50;0.50;;;0.50;;
76656;SDS011;65576;47.714;9.414;2023-02-20T04:19:18;1.13;;;0.73;;
76656;SDS011;65576;47.714;9.414;2023-02-20T04:24:24;3.40;;;0.80;;
76656;SDS011;65576;47.714;9.414;2023-02-20T04:26:56;1.58;;;1.05;;
76656;SDS011;65576;47.714;9.414;2023-02-20T04:29:22;1.15;;;0.90;;
76656;SDS011;65576;47.714;9.414;2023-02-20T04:31:48;0.88;;;0.75;;
76656;SDS011;65576;47.714;9.414;2023-02-20T04:34:13;1.00;;;0.90;;
76656;SDS011;65576;47.714;9.414;2023-02-20T04:36:39;0.98;;;0.73;;
76656;SDS011;65576;47.714;9.414;2023-02-20T04:39:04;0.70;;;0.70;;
76656;SDS011;65576;47.714;9.414;2023-02-20T04:41:29;0.85;;;0.60;;
76656;SDS011;65576;47.714;9.414;2023-02-20T04:43:55;0.57;;;0.32;;
76656;SDS011;65576;47.714;9.414;2023-02-20T04:46:40;0.80;;;0.80;;
76656;SDS011;65576;47.714;9.414;2023-02-20T04:49:05;1.05;;;0.98;;
76656;SDS011;65576;47.714;9.414;2023-02-20T04:51:30;0.30;;;0.30;;
76656;SDS011;65576;47.714;9.414;2023-02-20T04:53:56;1.17;;;1.08;;
76656;SDS011;65576;47.714;9.414;2023-02-20T04:56:21;0.55;;;0.55;;
76656;SDS011;65576;47.714;9.414;2023-02-20T04:58:46;1.20;;;0.90;;
76656;SDS011;65576;47.714;9.414;2023-02-20T05:01:13;1.40;;;1.05;;
76656;SDS011;65576;47.714;9.414;2023-02-20T05:03:38;1.38;;;1.17;;
76656;SDS011;65576;47.714;9.414;2023-02-20T05:06:04;1.15;;;0.82;;
76656;SDS011;65576;47.714;9.414;2023-02-20T05:08:30;1.33;;;1.23;;
76656;SDS011;65576;47.714;9.414;2023-02-20T05:10:55;0.60;;;0.60;;
76656;SDS011;65576;47.714;9.414;2023-02-20T05:13:21;1.02;;;0.90;;
76656;SDS011;65576;47.714;9.414;2023-02-20T05:15:46;1.85;;;1.10;;
76656;SDS011;65576;47.714;9.414;2023-02-20T05:18:11;0.70;;;0.70;;
76656;SDS011;65576;47.714;9.414;2023-02-20T05:20:37;0.70;;;0.70;;
76656;SDS011;65576;47.714;9.414;2023-02-20T05:23:20;1.33;;;1.10;;
76656;SDS011;65576;47.714;9.414;2023-02-20T05:25:46;0.90;;;0.90;;
76656;SDS011;65576;47.714;9.414;2023-02-20T05:28:11;1.27;;;1.17;;
76656;SDS011;65576;47.714;9.414;2023-02-20T05:30:36;1.60;;;1.17;;
76656;SDS011;65576;47.714;9.414;2023-02-20T05:33:02;1.88;;;1.40;;
76656;SDS011;65576;47.714;9.414;2023-02-20T05:35:27;2.50;;;1.55;;
76656;SDS011;65576;47.714;9.414;2023-02-20T05:37:52;2.53;;;1.30;;
76656;SDS011;65576;47.714;9.414;2023-02-20T05:40:18;1.23;;;0.77;;
76656;SDS011;65576;47.714;9.414;2023-02-20T05:42:43;1.30;;;0.60;;
76656;SDS011;65576;47.714;9.414;2023-02-20T05:45:08;0.93;;;0.93;;
76656;SDS011;65576;47.714;9.414;2023-02-20T05:47:35;0.63;;;0.63;;
76656;SDS011;65576;47.714;9.414;2023-02-20T05:50:02;3.38;;;1.70;;
76656;SDS011;65576;47.714;9.414;2023-02-20T05:52:27;1.83;;;1.33;;
76656;SDS011;65576;47.714;9.414;2023-02-20T05:54:52;5.68;;;1.83;;
76656;SDS011;65576;47.714;9.414;2023-02-20T05:57:18;1.58;;;1.48;;
76656;SDS011;65576;47.714;9.414;2023-02-20T05:59:43;2.63;;;1.35;;
76656;SDS011;65576;47.714;9.414;2023-02-20T06:02:08;1.23;;;1.13;;
76656;SDS011;65576;47.714;9.414;2023-02-20T06:04:34;4.68;;;1.48;;
76656;SDS011;65576;47.714;9.414;2023-02-20T06:06:59;1.63;;;1.52;;
76656;SDS011;65576;47.714;9.414;2023-02-20T06:09:24;0.98;;;0.93;;
76656;SDS011;65576;47.714;9.414;2023-02-20T06:11:50;2.03;;;1.00;;
76656;SDS011;65576;47.714;9.414;2023-02-20T06:14:17;1.08;;;0.88;;
76656;SDS011;65576;47.714;9.414;2023-02-20T06:16:43;1.83;;;1.40;;
76656;SDS011;65576;47.714;9.414;2023-02-20T06:19:09;1.80;;;1.27;;
76656;SDS011;65576;47.714;9.414;2023-02-20T06:21:34;1.38;;;1.27;;
76656;SDS011;65576;47.714;9.414;2023-02-20T06:24:00;1.38;;;0.98;;
76656;SDS011;65576;47.714;9.414;2023-02-20T06:26:25;1.98;;;1.70;;
76656;SDS011;65576;47.714;9.414;2023-02-20T06:28:51;1.55;;;1.45;;
76656;SDS011;65576;47.714;9.414;2023-02-20T06:31:22;1.25;;;1.15;;
76656;SDS011;65576;47.714;9.414;2023-02-20T06:33:51;3.00;;;1.77;;
76656;SDS011;65576;47.714;9.414;2023-02-20T06:36:24;0.70;;;0.70;;
76656;SDS011;65576;47.714;9.414;2023-02-20T06:38:53;3.45;;;1.20;;
76656;SDS011;65576;47.714;9.414;2023-02-20T06:41:18;1.67;;;1.10;;
76656;SDS011;65576;47.714;9.414;2023-02-20T06:43:43;0.80;;;0.77;;
76656;SDS011;65576;47.714;9.414;2023-02-20T06:46:09;2.33;;;1.85;;
76656;SDS011;65576;47.714;9.414;2023-02-20T06:48:34;2.65;;;1.75;;
76656;SDS011;65576;47.714;9.414;2023-02-20T06:50:59;1.48;;;1.38;;
76656;SDS011;65576;47.714;9.414;2023-02-20T06:53:25;2.20;;;2.00;;
76656;SDS011;65576;47.714;9.414;2023-02-20T06:55:50;6.25;;;2.00;;
76656;SDS011;65576;47.714;9.414;2023-02-20T06:58:15;4.82;;;2.38;;
76656;SDS011;65576;47.714;9.414;2023-02-20T07:00:40;4.28;;;2.08;;
76656;SDS011;65576;47.714;9.414;2023-02-20T07:03:06;2.17;;;1.58;;
76656;SDS011;65576;47.714;9.414;2023-02-20T07:05:31;1.25;;;1.15;;
76656;SDS011;65576;47.714;9.414;2023-02-20T07:07:56;3.13;;;1.30;;
76656;SDS011;65576;47.714;9.414;2023-02-20T07:10:22;2.10;;;1.40;;
76656;SDS011;65576;47.714;9.414;2023-02-20T07:12:47;1.33;;;1.10;;
76656;SDS011;65576;47.714;9.414;2023-02-20T07:15:12;2.25;;;1.55;;
76656;SDS011;65576;47.714;9.414;2023-02-20T07:17:38;1.15;;;1.00;;
76656;SDS011;65576;47.714;9.414;2023-02-20T07:20:03;2.20;;;1.92;;
76656;SDS011;65576;47.714;9.414;2023-02-20T07:22:29;3.03;;;2.13;;
76656;SDS011;65576;47.714;9.414;2023-02-20T07:24:55;3.47;;;2.58;;
76656;SDS011;65576;47.714;9.414;2023-02-20T07:27:20;4.55;;;1.50;;
76656;SDS011;65576;47.714;9.414;2023-02-20T07:29:47;1.98;;;1.38;;
76656;SDS011;65576;47.714;9.414;2023-02-20T07:32:14;1.67;;;1.38;;
76656;SDS011;65576;47.714;9.414;2023-02-20T07:34:40;3.05;;;1.83;;
76656;SDS011;65576;47.714;9.414;2023-02-20T07:37:06;3.55;;;2.28;;
76656;SDS011;65576;47.714;9.414;2023-02-20T07:39:31;1.27;;;1.17;;
76656;SDS011;65576;47.714;9.414;2023-02-20T07:41:56;1.75;;;1.60;;
76656;SDS011;65576;47.714;9.414;2023-02-20T07:44:22;1.10;;;1.00;;
76656;SDS011;65576;47.714;9.414;2023-02-20T07:46:47;1.90;;;1.50;;
76656;SDS011;65576;47.714;9.414;2023-02-20T07:49:12;3.55;;;1.95;;
76656;SDS011;65576;47.714;9.414;2023-02-20T07:51:38;1.42;;;1.17;;
76656;SDS011;65576;47.714;9.414;2023-02-20T07:54:03;1.75;;;1.20;;
76656;SDS011;65576;47.714;9.414;2023-02-20T07:56:29;1.58;;;1.48;;
76656;SDS011;65576;47.714;9.414;2023-02-20T07:58:54;1.30;;;1.20;;
76656;SDS011;65576;47.714;9.414;2023-02-20T08:01:20;1.92;;;1.25;;
76656;SDS011;65576;47.714;9.414;2023-02-20T08:03:45;8.10;;;3.28;;
76656;SDS011;65576;47.714;9.414;2023-02-20T08:06:10;6.00;;;3.75;;
76656;SDS011;65576;47.714;9.414;2023-02-20T08:08:36;11.85;;;2.88;;
76656;SDS011;65576;47.714;9.414;2023-02-20T08:11:01;2.83;;;2.22;;
76656;SDS011;65576;47.714;9.414;2023-02-20T08:13:27;2.83;;;2.20;;
76656;SDS011;65576;47.714;9.414;2023-02-20T08:15:52;4.70;;;2.63;;
76656;SDS011;65576;47.714;9.414;2023-02-20T08:18:18;7.25;;;2.85;;
76656;SDS011;65576;47.714;9.414;2023-02-20T08:20:43;6.90;;;2.95;;
76656;SDS011;65576;47.714;9.414;2023-02-20T08:23:15;3.63;;;2.15;;
76656;SDS011;65576;47.714;9.414;2023-02-20T08:25:42;2.42;;;1.92;;
76656;SDS011;65576;47.714;9.414;2023-02-20T08:28:07;1.95;;;1.70;;
76656;SDS011;65576;47.714;9.414;2023-02-20T08:30:33;2.22;;;2.05;;
76656;SDS011;65576;47.714;9.414;2023-02-20T08:32:58;3.40;;;2.45;;
76656;SDS011;65576;47.714;9.414;2023-02-20T08:35:26;5.40;;;2.17;;
76656;SDS011;65576;47.714;9.414;2023-02-20T08:37:51;3.40;;;2.00;;
76656;SDS011;65576;47.714;9.414;2023-02-20T08:40:16;5.30;;;2.17;;
76656;SDS011;65576;47.714;9.414;2023-02-20T08:42:42;3.47;;;2.83;;
76656;SDS011;65576;47.714;9.414;2023-02-20T08:45:07;4.18;;;2.28;;
76656;SDS011;65576;47.714;9.414;2023-02-20T08:47:33;3.58;;;2.00;;
76656;SDS011;65576;47.714;9.414;2023-02-20T08:49:59;2.70;;;1.88;;
76656;SDS011;65576;47.714;9.414;2023-02-20T08:52:24;1.58;;;1.45;;
76656;SDS011;65576;47.714;9.414;2023-02-20T08:54:50;2.47;;;1.48;;
76656;SDS011;65576;47.714;9.414;2023-02-20T08:57:16;4.70;;;1.88;;
76656;SDS011;65576;47.714;9.414;2023-02-20T08:59:42;4.47;;;1.67;;
76656;SDS011;65576;47.714;9.414;2023-02-20T09:02:08;1.45;;;1.35;;
76656;SDS011;65576;47.714;9.414;2023-02-20T09:04:41;3.45;;;2.03;;
76656;SDS011;65576;47.714;9.414;2023-02-20T09:07:10;3.10;;;1.40;;
76656;SDS011;65576;47.714;9.414;2023-02-20T09:09:36;2.35;;;1.42;;
76656;SDS011;65576;47.714;9.414;2023-02-20T09:12:01;1.83;;;1.38;;
76656;SDS011;65576;47.714;9.414;2023-02-20T09:14:26;1.95;;;1.30;;
76656;SDS011;65576;47.714;9.414;2023-02-20T09:16:52;1.88;;;1.67;;
76656;SDS011;65576;47.714;9.414;2023-02-20T09:19:17;2.47;;;1.77;;
76656;SDS011;65576;47.714;9.414;2023-02-20T09:21:46;1.75;;;1.40;;
76656;SDS011;65576;47.714;9.414;2023-02-20T09:24:12;2.13;;;1.73;;
76656;SDS011;65576;47.714;9.414;2023-02-20T09:26:37;2.13;;;1.67;;
76656;SDS011;65576;47.714;9.414;2023-02-20T09:29:03;3.45;;;1.45;;
76656;SDS011;65576;47.714;9.414;2023-02-20T09:31:28;2.08;;;1.48;;
76656;SDS011;65576;47.714;9.414;2023-02-20T09:33:53;2.20;;;1.33;;
76656;SDS011;65576;47.714;9.414;2023-02-20T09:36:19;7.35;;;2.03;;
76656;SDS011;65576;47.714;9.414;2023-02-20T09:38:44;6.45;;;1.45;;
76656;SDS011;65576;47.714;9.414;2023-02-20T09:41:25;2.50;;;1.60;;
76656;SDS011;65576;47.714;9.414;2023-02-20T09:44:01;10.57;;;2.40;;
76656;SDS011;65576;47.714;9.414;2023-02-20T09:49:11;1.50;;;1.25;;
76656;SDS011;65576;47.714;9.414;2023-02-20T09:51:42;2.28;;;1.15;;
76656;SDS011;65576;47.714;9.414;2023-02-20T09:54:17;2.75;;;1.67;;
76656;SDS011;65576;47.714;9.414;2023-02-20T09:56:54;1.52;;;1.25;;
76656;SDS011;65576;47.714;9.414;2023-02-20T09:59:23;4.85;;;1.67;;
76656;SDS011;65576;47.714;9.414;2023-02-20T10:04:50;2.00;;;1.73;;
76656;SDS011;65576;47.714;9.414;2023-02-20T10:07:23;1.40;;;1.02;;
76656;SDS011;65576;47.714;9.414;2023-02-20T10:09:50;1.85;;;1.33;;
76656;SDS011;65576;47.714;9.414;2023-02-20T10:12:18;2.50;;;1.80;;
76656;SDS011;65576;47.714;9.414;2023-02-20T10:14:58;2.38;;;1.75;;
76656;SDS011;65576;47.714;9.414;2023-02-20T10:17:30;6.55;;;2.08;;
76656;SDS011;65576;47.714;9.414;2023-02-20T10:20:08;5.85;;;1.20;;
76656;SDS011;65576;47.714;9.414;2023-02-20T10:22:41;3.17;;;1.80;;
76656;SDS011;65576;47.714;9.414;2023-02-20T10:28:18;1.52;;;0.95;;
76656;SDS011;65576;47.714;9.414;2023-02-20T10:30:45;3.83;;;1.58;;
76656;SDS011;65576;47.714;9.414;2023-02-20T10:36:18;3.92;;;2.08;;
76656;SDS011;65576;47.714;9.414;2023-02-20T10:39:23;4.72;;;1.80;;
76656;SDS011;65576;47.714;9.414;2023-02-20T10:41:44;1.23;;;1.13;;
76656;SDS011;65576;47.714;9.414;2023-02-20T10:47:09;1.67;;;1.27;;
76656;SDS011;65576;47.714;9.414;2023-02-20T10:49:51;6.38;;;1.70;;
76656;SDS011;65576;47.714;9.414;2023-02-20T10:52:38;2.55;;;1.55;;
76656;SDS011;65576;47.714;9.414;2023-02-20T10:55:10;1.30;;;1.20;;
76656;SDS011;65576;47.714;9.414;2023-02-20T11:00:30;1.08;;;0.98;;
76656;SDS011;65576;47.714;9.414;2023-02-20T11:03:10;2.50;;;1.58;;
76656;SDS011;65576;47.714;9.414;2023-02-20T11:05:40;3.03;;;1.90;;
76656;SDS011;65576;47.714;9.414;2023-02-20T11:08:10;2.78;;;1.70;;
76656;SDS011;65576;47.714;9.414;2023-02-20T11:10:35;6.13;;;1.50;;
76656;SDS011;65576;47.714;9.414;2023-02-20T11:13:03;5.80;;;1.55;;
76656;SDS011;65576;47.714;9.414;2023-02-20T11:15:30;3.10;;;1.40;;
76656;SDS011;65576;47.714;9.414;2023-02-20T11:17:56;3.38;;;2.08;;
76656;SDS011;65576;47.714;9.414;2023-02-20T11:23:05;1.20;;;1.10;;
76656;SDS011;65576;47.714;9.414;2023-02-20T11:25:32;1.70;;;1.50;;
76656;SDS011;65576;47.714;9.414;2023-02-20T11:30:39;2.10;;;1.38;;
76656;SDS011;65576;47.714;9.414;2023-02-20T11:35:42;3.40;;;1.70;;
76656;SDS011;65576;47.714;9.414;2023-02-20T11:43:24;2.15;;;1.60;;
76656;SDS011;65576;47.714;9.414;2023-02-20T11:48:59;1.67;;;1.42;;
76656;SDS011;65576;47.714;9.414;2023-02-20T11:51:32;2.55;;;1.70;;
76656;SDS011;65576;47.714;9.414;2023-02-20T11:54:17;4.10;;;1.88;;
76656;SDS011;65576;47.714;9.414;2023-02-20T12:02:47;1.65;;;1.48;;
76656;SDS011;65576;47.714;9.414;2023-02-20T12:05:17;1.75;;;1.50;;
76656;SDS011;65576;47.714;9.414;2023-02-20T12:12:52;4.40;;;1.70;;
76656;SDS011;65576;47.714;9.414;2023-02-20T12:15:18;4.30;;;1.83;;
76656;SDS011;65576;47.714;9.414;2023-02-20T12:20:28;2.03;;;1.83;;
76656;SDS011;65576;47.714;9.414;2023-02-20T12:22:59;1.20;;;1.10;;
76656;SDS011;65576;47.714;9.414;2023-02-20T12:25:43;3.72;;;1.70;;
76656;SDS011;65576;47.714;9.414;2023-02-20T12:28:17;1.95;;;1.50;;
76656;SDS011;65576;47.714;9.414;2023-02-20T12:38:35;1.67;;;1.30;;
76656;SDS011;65576;47.714;9.414;2023-02-20T12:46:36;3.67;;;1.75;;
76656;SDS011;65576;47.714;9.414;2023-02-20T12:49:25;4.22;;;1.80;;
76656;SDS011;65576;47.714;9.414;2023-02-20T12:52:17;2.75;;;1.63;;
76656;SDS011;65576;47.714;9.414;2023-02-20T13:02:47;1.65;;;1.55;;
76656;SDS011;65576;47.714;9.414;2023-02-20T13:05:16;2.72;;;1.88;;
76656;SDS011;65576;47.714;9.414;2023-02-20T13:07:44;2.95;;;1.60;;
76656;SDS011;65576;47.714;9.414;2023-02-20T13:12:50;7.90;;;1.55;;
76656;SDS011;65576;47.714;9.414;2023-02-20T13:15:32;3.05;;;1.85;;
76656;SDS011;65576;47.714;9.414;2023-02-20T13:20:54;2.88;;;1.92;;
76656;SDS011;65576;47.714;9.414;2023-02-20T13:25:47;5.00;;;2.00;;
76656;SDS011;65576;47.714;9.414;2023-02-20T13:28:21;2.88;;;2.05;;
76656;SDS011;65576;47.714;9.414;2023-02-20T13:31:23;6.93;;;2.00;;
76656;SDS011;65576;47.714;9.414;2023-02-20T13:33:48;2.83;;;1.85;;
76656;SDS011;65576;47.714;9.414;2023-02-20T13:36:17;2.60;;;2.05;;
76656;SDS011;65576;47.714;9.414;2023-02-20T13:46:57;5.88;;;2.20;;
76656;SDS011;65576;47.714;9.414;2023-02-20T14:02:40;3.50;;;1.90;;
76656;SDS011;65576;47.714;9.414;2023-02-20T14:05:05;2.15;;;1.77;;
76656;SDS011;65576;47.714;9.414;2023-02-20T14:07:36;4.55;;;2.47;;
76656;SDS011;65576;47.714;9.414;2023-02-20T14:10:12;3.53;;;2.08;;
76656;SDS011;65576;47.714;9.414;2023-02-20T14:12:40;5.35;;;2.95;;
76656;SDS011;65576;47.714;9.414;2023-02-20T14:15:05;2.63;;;2.00;;
76656;SDS011;65576;47.714;9.414;2023-02-20T14:17:31;4.28;;;2.38;;
76656;SDS011;65576;47.714;9.414;2023-02-20T14:20:00;6.32;;;3.03;;
76656;SDS011;65576;47.714;9.414;2023-02-20T14:22:30;7.25;;;3.40;;
76656;SDS011;65576;47.714;9.414;2023-02-20T14:25:00;6.05;;;3.05;;
76656;SDS011;65576;47.714;9.414;2023-02-20T14:27:41;7.22;;;3.05;;
76656;SDS011;65576;47.714;9.414;2023-02-20T14:32:32;4.30;;;2.95;;
76656;SDS011;65576;47.714;9.414;2023-02-20T14:35:06;4.60;;;2.30;;
76656;SDS011;65576;47.714;9.414;2023-02-20T14:37:53;4.32;;;2.65;;
76656;SDS011;65576;47.714;9.414;2023-02-20T14:40:25;5.72;;;3.17;;
76656;SDS011;65576;47.714;9.414;2023-02-20T14:43:00;5.57;;;3.40;;
76656;SDS011;65576;47.714;9.414;2023-02-20T14:45:27;3.90;;;2.83;;
76656;SDS011;65576;47.714;9.414;2023-02-20T14:47:57;5.47;;;2.70;;
76656;SDS011;65576;47.714;9.414;2023-02-20T14:50:31;3.67;;;2.40;;
76656;SDS011;65576;47.714;9.414;2023-02-20T14:53:11;3.53;;;2.78;;
76656;SDS011;65576;47.714;9.414;2023-02-20T14:55:38;3.90;;;2.92;;
76656;SDS011;65576;47.714;9.414;2023-02-20T14:58:07;3.92;;;2.55;;
76656;SDS011;65576;47.714;9.414;2023-02-20T15:00:35;4.75;;;3.30;;
76656;SDS011;65576;47.714;9.414;2023-02-20T15:03:05;3.90;;;2.50;;
76656;SDS011;65576;47.714;9.414;2023-02-20T15:05:33;3.60;;;2.50;;
76656;SDS011;65576;47.714;9.414;2023-02-20T15:10:44;4.40;;;2.75;;
76656;SDS011;65576;47.714;9.414;2023-02-20T15:13:13;4.05;;;2.95;;
76656;SDS011;65576;47.714;9.414;2023-02-20T15:15:43;6.03;;;3.03;;
76656;SDS011;65576;47.714;9.414;2023-02-20T15:18:12;4.70;;;3.17;;
76656;SDS011;65576;47.714;9.414;2023-02-20T15:20:45;6.65;;;3.63;;
76656;SDS011;65576;47.714;9.414;2023-02-20T15:25:39;3.65;;;2.97;;
76656;SDS011;65576;47.714;9.414;2023-02-20T15:28:05;3.60;;;2.75;;
76656;SDS011;65576;47.714;9.414;2023-02-20T15:33:20;4.15;;;2.90;;
76656;SDS011;65576;47.714;9.414;2023-02-20T15:35:46;5.05;;;2.45;;
76656;SDS011;65576;47.714;9.414;2023-02-20T15:38:13;4.22;;;2.47;;
76656;SDS011;65576;47.714;9.414;2023-02-20T15:40:38;3.88;;;2.70;;
76656;SDS011;65576;47.714;9.414;2023-02-20T15:43:08;5.93;;;2.55;;
76656;SDS011;65576;47.714;9.414;2023-02-20T15:45:35;3.72;;;2.50;;
76656;SDS011;65576;47.714;9.414;2023-02-20T15:48:03;6.65;;;2.80;;
76656;SDS011;65576;47.714;9.414;2023-02-20T15:50:29;3.70;;;2.88;;
76656;SDS011;65576;47.714;9.414;2023-02-20T15:52:54;5.07;;;3.20;;
76656;SDS011;65576;47.714;9.414;2023-02-20T15:55:22;4.80;;;3.00;;
76656;SDS011;65576;47.714;9.414;2023-02-20T15:57:48;4.85;;;2.72;;
76656;SDS011;65576;47.714;9.414;2023-02-20T16:00:22;2.95;;;2.42;;
76656;SDS011;65576;47.714;9.414;2023-02-20T16:02:50;3.75;;;2.63;;
76656;SDS011;65576;47.714;9.414;2023-02-20T16:05:16;3.08;;;2.33;;
76656;SDS011;65576;47.714;9.414;2023-02-20T16:07:41;3.70;;;2.35;;
76656;SDS011;65576;47.714;9.414;2023-02-20T16:10:07;2.95;;;2.25;;
76656;SDS011;65576;47.714;9.414;2023-02-20T16:12:33;5.80;;;2.90;;
76656;SDS011;65576;47.714;9.414;2023-02-20T16:14:58;3.42;;;2.08;;
76656;SDS011;65576;47.714;9.414;2023-02-20T16:17:26;4.00;;;2.30;;
76656;SDS011;65576;47.714;9.414;2023-02-20T16:19:52;3.30;;;2.30;;
76656;SDS011;65576;47.714;9.414;2023-02-20T16:22:21;3.17;;;2.28;;
76656;SDS011;65576;47.714;9.414;2023-02-20T16:24:47;2.80;;;2.53;;
76656;SDS011;65576;47.714;9.414;2023-02-20T16:27:20;3.40;;;2.03;;
76656;SDS011;65576;47.714;9.414;2023-02-20T16:29:47;4.40;;;2.47;;
76656;SDS011;65576;47.714;9.414;2023-02-20T16:32:16;5.30;;;2.33;;
76656;SDS011;65576;47.714;9.414;2023-02-20T16:34:43;10.23;;;1.88;;
76656;SDS011;65576;47.714;9.414;2023-02-20T16:37:10;4.03;;;2.22;;
76656;SDS011;65576;47.714;9.414;2023-02-20T16:39:37;2.58;;;2.05;;
76656;SDS011;65576;47.714;9.414;2023-02-20T16:42:05;3.78;;;1.95;;
76656;SDS011;65576;47.714;9.414;2023-02-20T16:44:43;5.22;;;2.15;;
76656;SDS011;65576;47.714;9.414;2023-02-20T16:47:13;3.97;;;2.22;;
76656;SDS011;65576;47.714;9.414;2023-02-20T16:49:43;3.83;;;2.40;;
76656;SDS011;65576;47.714;9.414;2023-02-20T16:52:10;4.30;;;2.35;;
76656;SDS011;65576;47.714;9.414;2023-02-20T16:54:42;4.13;;;2.65;;
76656;SDS011;65576;47.714;9.414;2023-02-20T16:57:08;2.67;;;1.77;;
76656;SDS011;65576;47.714;9.414;2023-02-20T16:59:34;3.20;;;2.47;;
76656;SDS011;65576;47.714;9.414;2023-02-20T17:01:59;10.55;;;3.60;;
76656;SDS011;65576;47.714;9.414;2023-02-20T17:04:24;14.82;;;5.10;;
76656;SDS011;65576;47.714;9.414;2023-02-20T17:06:50;5.68;;;3.30;;
76656;SDS011;65576;47.714;9.414;2023-02-20T17:09:15;6.85;;;2.42;;
76656;SDS011;65576;47.714;9.414;2023-02-20T17:11:40;10.48;;;2.45;;
76656;SDS011;65576;47.714;9.414;2023-02-20T17:14:06;2.97;;;2.05;;
76656;SDS011;65576;47.714;9.414;2023-02-20T17:16:31;2.85;;;2.08;;